createdAt,value
2018-01-10T00:01:02.718Z,5.54
2018-01-10T00:03:30.312Z,5.67
2018-01-10T00:05:57.887Z,5.45
2018-01-10T00:08:25.444Z,5.51
2018-01-10T00:10:53.582Z,5.52
2018-01-10T00:13:21.134Z,5.52
2018-01-10T00:15:48.696Z,5.34
2018-01-10T00:18:16.473Z,5.45
2018-01-10T00:20:44.059Z,5.62
2018-01-10T00:23:11.634Z,5.56
2018-01-10T00:25:39.411Z,5.46
2018-01-10T00:28:07.333Z,5.53
2018-01-10T00:30:34.972Z,5.51
2018-01-10T00:33:02.525Z,5.48
2018-01-10T00:35:30.660Z,5.50
2018-01-10T00:37:59.665Z,5.49
2018-01-10T00:40:27.255Z,5.49
2018-01-10T00:42:55.063Z,5.74
2018-01-10T00:45:22.644Z,5.61
2018-01-10T00:47:50.469Z,5.73
2018-01-10T00:50:18.664Z,5.63
2018-01-10T00:52:46.268Z,5.60
2018-01-10T00:55:13.856Z,5.56
2018-01-10T00:57:42.104Z,5.70
2018-01-10T01:00:09.869Z,5.47
2018-01-10T01:02:37.434Z,5.65
2018-01-10T01:05:06.857Z,5.77
2018-01-10T01:07:34.581Z,5.61
2018-01-10T01:10:02.270Z,5.71
2018-01-10T01:12:30.741Z,5.82
2018-01-10T01:14:58.347Z,5.79
2018-01-10T01:17:25.960Z,5.93
2018-01-10T01:19:53.563Z,5.85
2018-01-10T01:22:21.185Z,5.93
2018-01-10T01:24:48.742Z,6.02
2018-01-10T01:27:16.393Z,5.77
2018-01-10T01:29:43.967Z,5.68
2018-01-10T01:32:11.535Z,5.98
2018-01-10T01:34:39.576Z,5.85
2018-01-10T01:37:07.416Z,5.80
2018-01-10T01:39:35.121Z,6.02
2018-01-10T01:42:02.933Z,6.10
2018-01-10T01:44:30.537Z,5.89
2018-01-10T01:46:58.107Z,5.79
2018-01-10T01:49:25.715Z,5.88
2018-01-10T01:51:53.266Z,6.02
2018-01-10T01:54:20.865Z,5.86
2018-01-10T01:56:48.981Z,5.78
2018-01-10T01:59:16.662Z,5.89
2018-01-10T02:01:45.123Z,5.91
2018-01-10T02:04:12.740Z,5.97
2018-01-10T02:06:40.570Z,5.81
2018-01-10T02:09:08.173Z,5.86
2018-01-10T02:11:35.988Z,5.95
2018-01-10T02:14:03.574Z,6.04
2018-01-10T02:16:31.160Z,5.92
2018-01-10T02:18:58.928Z,5.90
2018-01-10T02:21:27.069Z,5.88
2018-01-10T02:23:54.629Z,6.01
2018-01-10T02:26:22.199Z,5.67
2018-01-10T02:28:49.957Z,5.80
2018-01-10T02:31:17.538Z,6.01
2018-01-10T02:33:45.277Z,5.89
2018-01-10T02:36:12.865Z,5.94
2018-01-10T02:38:40.479Z,5.86
2018-01-10T02:41:08.028Z,5.98
2018-01-10T02:43:35.816Z,5.89
2018-01-10T02:46:03.388Z,5.78
2018-01-10T02:48:31.888Z,5.97
2018-01-10T02:51:00.466Z,5.77
2018-01-10T02:53:28.124Z,5.80
2018-01-10T02:55:55.920Z,5.98
2018-01-10T02:58:23.566Z,6.09
2018-01-10T03:00:51.348Z,6.01
2018-01-10T03:03:18.920Z,6.01
2018-01-10T03:05:46.711Z,5.81
2018-01-10T03:08:14.545Z,5.80
2018-01-10T03:10:43.008Z,5.97
2018-01-10T03:13:10.572Z,5.91
2018-01-10T03:15:38.153Z,5.94
2018-01-10T03:18:05.928Z,5.72
2018-01-10T03:20:33.690Z,5.45
2018-01-10T03:23:01.618Z,5.85
2018-01-10T03:25:29.165Z,5.89
2018-01-10T03:27:57.720Z,5.71
2018-01-10T03:30:25.322Z,5.70
2018-01-10T03:32:52.919Z,5.94
2018-01-10T03:35:20.515Z,5.70
2018-01-10T03:37:48.134Z,5.63
2018-01-10T03:40:15.733Z,5.51
2018-01-10T03:42:43.531Z,5.89
2018-01-10T03:45:11.079Z,5.89
2018-01-10T03:47:38.833Z,5.74
2018-01-10T03:50:06.448Z,5.57
2018-01-10T03:52:34.080Z,5.89
2018-01-10T03:55:01.726Z,5.83
2018-01-10T03:57:29.481Z,5.90
2018-01-10T03:59:57.276Z,6.12
2018-01-10T04:02:24.882Z,5.78
2018-01-10T04:04:52.668Z,5.70
2018-01-10T04:07:22.531Z,5.71
2018-01-10T04:09:50.133Z,6.08
2018-01-10T04:12:17.726Z,5.85
2018-01-10T04:14:45.282Z,5.92
2018-01-10T04:17:12.944Z,5.76
2018-01-10T04:19:40.517Z,5.78
2018-01-10T04:22:08.253Z,5.58
2018-01-10T04:24:35.807Z,5.49
2018-01-10T04:27:04.205Z,5.46
2018-01-10T04:29:31.741Z,5.49
2018-01-10T04:31:59.337Z,5.51
2018-01-10T04:34:26.888Z,5.44
2018-01-10T04:36:54.468Z,5.58
2018-01-10T04:39:22.261Z,5.48
2018-01-10T04:41:49.901Z,5.58
2018-01-10T04:44:17.431Z,5.59
2018-01-10T04:46:45.032Z,5.69
2018-01-10T04:49:12.666Z,5.62
2018-01-10T04:51:40.596Z,5.43
2018-01-10T04:54:08.197Z,5.52
2018-01-10T04:56:35.747Z,5.49
2018-01-10T04:59:03.352Z,5.27
2018-01-10T05:01:30.929Z,5.28
2018-01-10T05:03:58.810Z,5.29
2018-01-10T05:06:26.413Z,5.28
2018-01-10T05:08:54.034Z,5.39
2018-01-10T05:11:21.834Z,5.37
2018-01-10T05:13:49.449Z,5.27
2018-01-10T05:16:17.087Z,5.23
2018-01-10T05:18:44.614Z,5.28
2018-01-10T05:21:12.244Z,5.54
2018-01-10T05:23:39.837Z,5.56
2018-01-10T05:26:08.121Z,6.79
2018-01-10T05:28:36.064Z,6.24
2018-01-10T05:31:04.094Z,6.23
2018-01-10T05:33:31.943Z,6.17
2018-01-10T05:35:59.531Z,6.17
2018-01-10T05:38:28.070Z,5.94
2018-01-10T05:40:55.760Z,5.66
2018-01-10T05:43:23.611Z,5.69
2018-01-10T05:45:51.385Z,6.62
2018-01-10T05:48:19.168Z,6.59
2018-01-10T05:50:47.133Z,7.23
2018-01-10T05:53:14.750Z,6.48
2018-01-10T05:55:42.339Z,6.33
2018-01-10T05:58:10.238Z,6.43
2018-01-10T06:00:37.904Z,6.47
2018-01-10T06:03:05.689Z,6.20
2018-01-10T06:05:33.952Z,6.39
2018-01-10T06:08:01.556Z,6.43
2018-01-10T06:10:29.156Z,6.23
2018-01-10T06:12:57.373Z,6.25
2018-01-10T06:15:25.000Z,6.10
2018-01-10T06:17:52.573Z,6.13
2018-01-10T06:20:20.115Z,6.22
2018-01-10T06:22:48.223Z,5.96
2018-01-10T06:25:16.048Z,5.95
2018-01-10T06:27:43.624Z,5.80
2018-01-10T06:30:11.345Z,5.67
2018-01-10T06:32:38.914Z,5.97
2018-01-10T06:35:08.046Z,5.93
2018-01-10T06:37:35.669Z,5.53
2018-01-10T06:40:04.224Z,5.74
2018-01-10T06:42:31.996Z,5.75
2018-01-10T06:45:00.560Z,5.68
2018-01-10T06:47:29.249Z,5.87
2018-01-10T06:49:57.699Z,5.63
2018-01-10T06:52:26.047Z,5.69
2018-01-10T06:54:53.715Z,5.59
2018-01-10T06:57:21.492Z,5.40
2018-01-10T06:59:49.913Z,5.75
2018-01-10T07:02:17.986Z,5.36
2018-01-10T07:04:45.603Z,5.56
2018-01-10T07:07:13.365Z,5.63
2018-01-10T07:09:41.007Z,5.61
2018-01-10T07:12:09.450Z,5.55
2018-01-10T07:14:37.042Z,5.68
2018-01-10T07:17:04.663Z,5.69
2018-01-10T07:19:33.160Z,5.47
2018-01-10T07:22:01.400Z,5.42
2018-01-10T07:24:29.653Z,5.63
2018-01-10T07:26:57.202Z,5.83
2018-01-10T07:29:25.732Z,5.82
2018-01-10T07:31:53.331Z,5.96
2018-01-10T07:34:20.914Z,5.49
2018-01-10T07:36:49.217Z,6.01
2018-01-10T07:39:16.822Z,6.05
2018-01-10T07:41:45.159Z,5.91
2018-01-10T07:44:12.731Z,5.74
2018-01-10T07:46:40.543Z,5.96
2018-01-10T07:49:08.354Z,5.77
2018-01-10T07:51:35.930Z,5.46
2018-01-10T07:54:03.540Z,5.74
2018-01-10T07:56:31.109Z,5.67
2018-01-10T07:58:58.874Z,5.66
2018-01-10T08:01:26.476Z,5.44
2018-01-10T08:03:54.072Z,5.79
2018-01-10T08:06:21.625Z,5.67
2018-01-10T08:08:49.305Z,5.67
2018-01-10T08:11:17.856Z,5.90
2018-01-10T08:13:46.163Z,5.66
2018-01-10T08:16:14.452Z,5.91
2018-01-10T08:18:42.928Z,5.88
2018-01-10T08:21:10.508Z,5.82
2018-01-10T08:23:38.808Z,5.78
2018-01-10T08:26:07.288Z,5.86
2018-01-10T08:28:35.572Z,5.86
2018-01-10T08:31:04.203Z,5.96
2018-01-10T08:33:31.844Z,5.93
2018-01-10T08:35:59.501Z,5.91
2018-01-10T08:38:28.040Z,5.92
2018-01-10T08:40:55.678Z,5.99
2018-01-10T08:43:23.431Z,5.94
2018-01-10T08:45:51.070Z,5.80
2018-01-10T08:48:18.688Z,5.99
2018-01-10T08:50:46.461Z,6.15
2018-01-10T08:53:14.320Z,6.05
2018-01-10T08:55:41.848Z,6.12
2018-01-10T08:58:09.437Z,6.48
2018-01-10T09:00:37.339Z,6.06
2018-01-10T09:03:05.244Z,6.05
2018-01-10T09:05:32.807Z,5.89
2018-01-10T09:08:01.930Z,6.19
2018-01-10T09:10:29.491Z,6.01
2018-01-10T09:12:57.047Z,6.04
2018-01-10T09:15:24.636Z,6.16
2018-01-10T09:17:52.875Z,6.18
2018-01-10T09:20:20.505Z,6.26
2018-01-10T09:22:48.119Z,6.43
2018-01-10T09:25:15.871Z,6.37
2018-01-10T09:27:43.500Z,6.47
2018-01-10T09:30:11.242Z,6.20
2018-01-10T09:32:38.790Z,6.30
2018-01-10T09:35:06.363Z,6.29
2018-01-10T09:37:34.250Z,6.39
2018-01-10T09:40:01.803Z,6.46
2018-01-10T09:42:30.577Z,6.44
2018-01-10T09:44:58.173Z,6.09
2018-01-10T09:47:25.750Z,6.30
2018-01-10T09:49:53.393Z,6.25
2018-01-10T09:52:21.157Z,6.31
2018-01-10T09:54:48.783Z,6.17
2018-01-10T09:57:16.715Z,6.15
2018-01-10T09:59:44.431Z,6.43
2018-01-10T10:02:12.099Z,6.38
2018-01-10T10:04:40.537Z,6.43
2018-01-10T10:07:08.346Z,6.24
2018-01-10T10:09:35.996Z,6.42
2018-01-10T10:12:04.476Z,6.44
2018-01-10T10:14:32.248Z,6.59
2018-01-10T10:16:59.850Z,6.46
2018-01-10T10:19:27.441Z,6.66
2018-01-10T10:21:55.235Z,6.67
2018-01-10T10:24:23.786Z,6.34
2018-01-10T10:26:51.375Z,6.62
2018-01-10T10:29:19.131Z,6.42
2018-01-10T10:31:47.305Z,6.53
2018-01-10T10:34:14.955Z,6.54
2018-01-10T10:36:43.075Z,6.95
2018-01-10T10:39:11.067Z,7.09
2018-01-10T10:41:38.666Z,6.84
2018-01-10T10:44:06.519Z,6.74
2018-01-10T10:46:34.315Z,6.77
2018-01-10T10:49:02.874Z,6.98
2018-01-10T10:51:30.578Z,7.05
2018-01-10T10:53:58.169Z,7.00
2018-01-10T10:56:25.745Z,7.17
2018-01-10T10:58:53.326Z,7.03
2018-01-10T11:01:21.274Z,7.13
2018-01-10T11:03:48.862Z,7.42
2018-01-10T11:06:16.504Z,7.11
2018-01-10T11:08:45.123Z,7.45
2018-01-10T11:11:12.948Z,7.49
2018-01-10T11:13:40.549Z,7.32
2018-01-10T11:16:08.306Z,7.25
2018-01-10T11:18:35.923Z,7.44
2018-01-10T11:21:03.557Z,7.32
2018-01-10T11:23:31.235Z,7.41
2018-01-10T11:25:58.852Z,7.45
2018-01-10T11:28:28.453Z,7.34
2018-01-10T11:30:56.249Z,7.75
2018-01-10T11:33:23.947Z,7.40
2018-01-10T11:35:51.564Z,7.48
2018-01-10T11:38:19.156Z,7.35
2018-01-10T11:40:47.591Z,6.91
2018-01-10T11:43:15.151Z,7.36
2018-01-10T11:45:43.588Z,7.21
2018-01-10T11:48:12.607Z,7.53
2018-01-10T11:50:40.193Z,7.28
2018-01-10T11:53:07.968Z,7.32
2018-01-10T11:55:36.345Z,7.73
2018-01-10T11:58:04.909Z,7.60
2018-01-10T12:00:32.547Z,7.79
2018-01-10T12:03:00.135Z,7.69
2018-01-10T12:05:27.740Z,7.63
2018-01-10T12:07:55.413Z,7.39
2018-01-10T12:10:23.005Z,7.47
2018-01-10T12:12:50.820Z,7.69
2018-01-10T12:15:18.454Z,7.46
2018-01-10T12:17:46.116Z,7.33
2018-01-10T12:20:13.950Z,7.16
2018-01-10T12:22:45.023Z,7.21
2018-01-10T12:25:12.617Z,7.26
2018-01-10T12:27:40.253Z,7.20
2018-01-10T12:30:08.182Z,6.89
2018-01-10T12:32:35.791Z,7.08
2018-01-10T12:35:03.357Z,6.90
2018-01-10T12:37:32.014Z,7.19
2018-01-10T12:40:01.029Z,6.98
2018-01-10T12:42:29.222Z,7.18
2018-01-10T12:44:56.834Z,6.93
2018-01-10T12:47:24.473Z,7.03
2018-01-10T12:49:52.042Z,6.83
2018-01-10T12:52:19.626Z,6.82
2018-01-10T12:54:47.343Z,6.83
2018-01-10T12:57:14.963Z,6.96
2018-01-10T12:59:42.677Z,6.87
2018-01-10T13:02:10.324Z,6.63
2018-01-10T13:04:37.894Z,7.01
2018-01-10T13:07:05.478Z,7.01
2018-01-10T13:09:33.123Z,6.99
2018-01-10T13:12:00.717Z,6.95
2018-01-10T13:14:28.312Z,7.33
2018-01-10T13:16:56.296Z,7.15
2018-01-10T13:19:23.867Z,7.14
2018-01-10T13:21:51.475Z,7.08
2018-01-10T13:24:19.108Z,7.21
2018-01-10T13:26:47.902Z,7.23
2018-01-10T13:29:16.440Z,7.20
2018-01-10T13:31:44.096Z,7.47
2018-01-10T13:34:11.670Z,7.23
2018-01-10T13:36:39.332Z,7.03
2018-01-10T13:39:06.930Z,6.86
2018-01-10T13:41:34.494Z,7.09
2018-01-10T13:44:02.057Z,7.29
2018-01-10T13:46:30.888Z,7.16
2018-01-10T13:48:59.467Z,7.41
2018-01-10T13:51:27.051Z,7.29
2018-01-10T13:53:54.732Z,7.15
2018-01-10T13:56:23.100Z,7.37
2018-01-10T13:58:51.079Z,7.28
2018-01-10T14:01:18.757Z,7.15
2018-01-10T14:03:46.376Z,7.10
2018-01-10T14:06:13.976Z,7.29
2018-01-10T14:08:41.603Z,7.13
2018-01-10T14:11:09.218Z,7.21
2018-01-10T14:13:36.806Z,7.04
2018-01-10T14:16:04.600Z,7.07
2018-01-10T14:18:32.453Z,6.93
2018-01-10T14:21:00.190Z,6.83
2018-01-10T14:23:27.892Z,6.60
2018-01-10T14:25:56.648Z,6.81
2018-01-10T14:28:24.516Z,6.69
2018-01-10T14:30:52.310Z,6.58
2018-01-10T14:33:20.016Z,6.53
2018-01-10T14:35:47.576Z,6.75
2018-01-10T14:38:15.195Z,6.82
2018-01-10T14:40:42.948Z,6.54
2018-01-10T14:43:10.597Z,6.78
2018-01-10T14:45:38.193Z,6.79
2018-01-10T14:48:06.119Z,6.78
2018-01-10T14:50:33.945Z,6.71
2018-01-10T14:53:01.601Z,6.71
2018-01-10T14:55:29.230Z,6.69
2018-01-10T14:57:56.860Z,6.70
2018-01-10T15:00:24.611Z,6.52
2018-01-10T15:02:52.260Z,6.54
2018-01-10T15:05:20.071Z,6.26
2018-01-10T15:07:48.251Z,6.25
2018-01-10T15:10:16.057Z,6.16
2018-01-10T15:12:43.668Z,6.15
2018-01-10T15:15:11.545Z,6.02
2018-01-10T15:17:39.432Z,6.24
2018-01-10T15:20:07.215Z,6.10
2018-01-10T15:22:35.026Z,6.21
2018-01-10T15:25:02.867Z,6.11
2018-01-10T15:27:32.186Z,6.22
2018-01-10T15:29:59.840Z,6.41
2018-01-10T15:32:27.541Z,6.10
2018-01-10T15:34:55.154Z,6.04
2018-01-10T15:37:23.899Z,6.18
2018-01-10T15:39:51.571Z,6.02
2018-01-10T15:42:20.033Z,5.97
2018-01-10T15:44:47.624Z,5.79
2018-01-10T15:47:15.339Z,5.73
2018-01-10T15:49:42.965Z,5.80
2018-01-10T15:52:11.352Z,5.79
2018-01-10T15:54:39.001Z,5.73
2018-01-10T15:57:06.730Z,5.92
2018-01-10T15:59:34.575Z,5.63
2018-01-10T16:02:02.169Z,5.85
2018-01-10T16:04:29.772Z,5.68
2018-01-10T16:06:57.562Z,5.61
2018-01-10T16:09:25.245Z,5.47
2018-01-10T16:11:52.940Z,5.51
2018-01-10T16:14:21.137Z,5.44
2018-01-10T16:16:49.525Z,5.47
2018-01-10T16:19:17.685Z,5.36
2018-01-10T16:21:45.617Z,5.48
2018-01-10T16:24:13.446Z,5.34
2018-01-10T16:26:41.246Z,5.43
2018-01-10T16:29:09.224Z,5.66
2018-01-10T16:31:36.907Z,5.53
2018-01-10T16:34:04.617Z,5.46
2018-01-10T16:36:32.406Z,5.50
2018-01-10T16:39:00.942Z,5.49
2018-01-10T16:41:29.349Z,5.40
2018-01-10T16:43:57.113Z,5.47
2018-01-10T16:46:24.741Z,5.71
2018-01-10T16:48:52.348Z,5.52
2018-01-10T16:51:19.998Z,5.57
2018-01-10T16:53:48.248Z,5.46
2018-01-10T16:56:16.541Z,5.89
2018-01-10T16:58:44.417Z,5.57
2018-01-10T17:01:12.111Z,5.74
2018-01-10T17:03:40.752Z,5.70
2018-01-10T17:06:08.443Z,5.53
2018-01-10T17:08:36.084Z,5.42
2018-01-10T17:11:03.770Z,5.37
2018-01-10T17:13:32.348Z,5.35
2018-01-10T17:15:59.916Z,5.34
2018-01-10T17:18:28.450Z,5.64
2018-01-10T17:20:56.477Z,5.61
2018-01-10T17:23:24.362Z,5.35
2018-01-10T17:25:53.121Z,5.19
2018-01-10T17:28:20.700Z,5.36
2018-01-10T17:30:48.292Z,5.31
2018-01-10T17:33:15.849Z,5.50
2018-01-10T17:35:44.112Z,5.28
2018-01-10T17:38:11.844Z,5.37
2018-01-10T17:40:39.914Z,5.38
2018-01-10T17:43:07.676Z,5.52
2018-01-10T17:45:35.329Z,5.84
2018-01-10T17:48:03.777Z,5.65
2018-01-10T17:50:32.564Z,5.23
2018-01-10T17:53:00.372Z,5.44
2018-01-10T17:55:27.993Z,5.43
2018-01-10T17:57:56.098Z,5.41
2018-01-10T18:00:25.008Z,5.44
2018-01-10T18:02:52.608Z,5.58
2018-01-10T18:05:21.141Z,5.43
2018-01-10T18:07:48.816Z,5.53
2018-01-10T18:10:16.509Z,5.36
2018-01-10T18:12:45.764Z,5.42
2018-01-10T18:15:13.452Z,5.24
2018-01-10T18:17:41.571Z,5.34
2018-01-10T18:20:09.271Z,5.64
2018-01-10T18:22:36.966Z,5.37
2018-01-10T18:25:05.004Z,5.34
2018-01-10T18:27:32.792Z,5.44
2018-01-10T18:30:00.983Z,5.66
2018-01-10T18:32:28.599Z,5.61
2018-01-10T18:34:56.209Z,5.47
2018-01-10T18:37:24.036Z,5.43
2018-01-10T18:39:52.651Z,5.36
2018-01-10T18:42:20.689Z,5.21
2018-01-10T18:44:48.362Z,5.47
2018-01-10T18:47:15.997Z,5.57
2018-01-10T18:49:43.576Z,5.43
2018-01-10T18:52:11.150Z,5.59
2018-01-10T18:54:39.689Z,5.39
2018-01-10T18:57:08.019Z,5.33
2018-01-10T18:59:36.078Z,5.69
2018-01-10T19:02:04.577Z,5.83
2018-01-10T19:04:32.810Z,5.41
2018-01-10T19:07:00.592Z,5.61
2018-01-10T19:09:29.149Z,5.15
2018-01-10T19:11:58.309Z,5.66
2018-01-10T19:14:26.755Z,5.89
2018-01-10T19:16:55.370Z,5.88
2018-01-10T19:19:23.033Z,5.96
2018-01-10T19:21:50.759Z,5.60
2018-01-10T19:24:18.644Z,5.90
2018-01-10T19:26:47.090Z,5.72
2018-01-10T19:29:16.085Z,5.61
2018-01-10T19:31:43.701Z,5.99
2018-01-10T19:34:12.091Z,5.76
2018-01-10T19:36:40.344Z,5.86
2018-01-10T19:39:08.084Z,5.44
2018-01-10T19:41:35.703Z,5.17
2018-01-10T19:44:03.770Z,5.25
2018-01-10T19:46:31.586Z,5.24
2018-01-10T19:48:59.898Z,5.45
2018-01-10T19:51:28.328Z,5.57
2018-01-10T19:53:55.946Z,5.67
2018-01-10T19:56:24.809Z,5.61
2018-01-10T19:58:52.704Z,5.46
2018-01-10T20:01:20.457Z,5.20
2018-01-10T20:03:47.994Z,5.51
2018-01-10T20:06:15.557Z,5.16
2018-01-10T20:08:43.284Z,5.12
2018-01-10T20:11:10.982Z,5.12
2018-01-10T20:13:39.985Z,5.34
2018-01-10T20:16:07.580Z,5.23
2018-01-10T20:18:35.238Z,5.44
2018-01-10T20:21:02.780Z,5.54
2018-01-10T20:23:30.432Z,5.48
2018-01-10T20:25:58.023Z,5.61
2018-01-10T20:28:25.578Z,5.74
2018-01-10T20:30:53.279Z,5.55
2018-01-10T20:33:20.876Z,5.35
2018-01-10T20:35:48.413Z,5.42
2018-01-10T20:38:16.778Z,5.70
2018-01-10T20:40:45.606Z,5.24
2018-01-10T20:43:14.112Z,5.65
2018-01-10T20:45:41.744Z,5.76
2018-01-10T20:48:09.552Z,5.80
2018-01-10T20:50:37.148Z,5.39
2018-01-10T20:53:05.730Z,5.39
2018-01-10T20:55:34.208Z,5.14
2018-01-10T20:58:02.425Z,5.49
2018-01-10T21:00:30.116Z,5.42
2018-01-10T21:02:57.745Z,5.83
2018-01-10T21:05:25.381Z,5.24
2018-01-10T21:07:53.100Z,5.72
2018-01-10T21:10:20.710Z,5.19
2018-01-10T21:12:48.324Z,5.47
2018-01-10T21:15:15.983Z,5.47
2018-01-10T21:17:43.647Z,5.59
2018-01-10T21:20:11.216Z,5.66
2018-01-10T21:22:38.917Z,5.47
2018-01-10T21:25:06.538Z,5.44
2018-01-10T21:27:34.182Z,5.51
2018-01-10T21:30:01.849Z,5.58
2018-01-10T21:32:29.538Z,5.97
2018-01-10T21:34:57.784Z,5.97
2018-01-10T21:37:27.339Z,6.03
2018-01-10T21:39:55.816Z,6.15
2018-01-10T21:42:23.614Z,5.85
2018-01-10T21:44:51.429Z,5.81
2018-01-10T21:47:19.044Z,5.63
2018-01-10T21:49:46.657Z,5.97
2018-01-10T21:52:14.473Z,5.76
2018-01-10T21:54:42.062Z,5.91
2018-01-10T21:57:09.655Z,5.92
2018-01-10T21:59:38.266Z,5.73
2018-01-10T22:02:05.853Z,5.51
2018-01-10T22:04:33.632Z,5.90
2018-01-10T22:07:01.213Z,5.78
2018-01-10T22:09:28.862Z,5.63
2018-01-10T22:11:56.647Z,6.07
2018-01-10T22:14:24.543Z,5.92
2018-01-10T22:16:52.214Z,5.92
2018-01-10T22:19:19.808Z,5.92
2018-01-10T22:21:47.568Z,5.94
2018-01-10T22:24:16.133Z,5.98
2018-01-10T22:26:43.733Z,5.61
2018-01-10T22:29:11.344Z,6.09
2018-01-10T22:31:39.138Z,6.02
2018-01-10T22:34:06.719Z,5.96
2018-01-10T22:36:34.336Z,6.02
2018-01-10T22:39:02.309Z,5.76
2018-01-10T22:41:29.883Z,6.12
2018-01-10T22:43:57.447Z,5.71
2018-01-10T22:46:25.093Z,5.78
2018-01-10T22:48:53.316Z,5.63
2018-01-10T22:51:20.896Z,6.05
2018-01-10T22:53:48.492Z,5.80
2018-01-10T22:56:16.045Z,5.67
2018-01-10T22:58:43.830Z,5.64
2018-01-10T23:01:11.434Z,5.94
2018-01-10T23:03:39.195Z,5.77
2018-01-10T23:06:07.759Z,6.11
2018-01-10T23:08:38.791Z,6.04
2018-01-10T23:11:07.811Z,6.19
2018-01-10T23:13:36.757Z,6.39
2018-01-10T23:16:04.994Z,6.54
2018-01-10T23:18:34.659Z,6.49
2018-01-10T23:21:04.675Z,6.58
2018-01-10T23:23:32.882Z,6.46
2018-01-10T23:26:02.822Z,6.66
2018-01-10T23:28:31.925Z,6.83
2018-01-10T23:31:01.167Z,6.81
2018-01-10T23:33:30.227Z,6.80
2018-01-10T23:35:59.718Z,6.79
2018-01-10T23:38:28.114Z,6.73
2018-01-10T23:40:55.845Z,6.71
2018-01-10T23:43:23.442Z,6.96
2018-01-10T23:45:51.004Z,6.68
2018-01-10T23:48:19.014Z,6.66
2018-01-10T23:50:47.620Z,6.02
2018-01-10T23:53:16.816Z,6.50
2018-01-10T23:55:47.102Z,6.39
2018-01-10T23:58:16.634Z,6.59
